Time;durP1;ratioP1;P1;durP2;ratioP2;P2;SDS_P1;SDS_P2;PMS_P1;PMS_P2;Temp;Humidity;BMP_temperature;BMP_pressure;BME280_temperature;BME280_humidity;BME280_pressure;Samples;Min_cycle;Max_cycle;Signal;HPM_P1;HPM_P2
2023/04/16 00:02:13;;;;;;;45.03;15.32;;;8.80;99.90;;;;;;5071442;28;20047;-74
2023/04/16 00:04:39;;;;;;;51.42;16.70;;;8.80;99.90;;;;;;5110159;28;20163;-72
2023/04/16 00:07:05;;;;;;;42.13;16.65;;;8.80;99.90;;;;;;5090839;28;20059;-72
2023/04/16 00:09:31;;;;;;;51.70;15.35;;;8.80;99.90;;;;;;5089426;28;20495;-72
2023/04/16 00:11:56;;;;;;;55.17;16.80;;;8.80;99.90;;;;;;5095888;28;20063;-71
2023/04/16 00:14:22;;;;;;;48.50;17.20;;;8.80;99.90;;;;;;5105077;28;20097;-72
2023/04/16 00:16:48;;;;;;;48.53;17.65;;;8.80;99.90;;;;;;5093371;28;20556;-75
2023/04/16 00:19:13;;;;;;;48.78;16.85;;;8.80;99.90;;;;;;5088539;28;20051;-72
2023/04/16 00:21:39;;;;;;;49.35;17.02;;;8.80;99.90;;;;;;5096066;28;20420;-72
2023/04/16 00:24:05;;;;;;;47.88;17.30;;;8.80;99.90;;;;;;5095050;28;20396;-72
2023/04/16 00:26:30;;;;;;;47.95;18.85;;;8.80;99.90;;;;;;5113965;28;20100;-71
2023/04/16 00:28:56;;;;;;;41.88;17.10;;;8.90;99.90;;;;;;5113496;28;20044;-76
2023/04/16 00:31:27;;;;;;;38.67;17.25;;;8.80;99.90;;;;;;5104816;28;20052;-72
2023/04/16 00:33:53;;;;;;;48.70;15.85;;;8.80;99.90;;;;;;5076013;28;20063;-73
2023/04/16 00:36:19;;;;;;;50.17;17.77;;;8.80;99.90;;;;;;5075225;28;20431;-72
2023/04/16 00:38:44;;;;;;;53.08;18.45;;;8.80;99.90;;;;;;5088790;28;20047;-72
2023/04/16 00:41:10;;;;;;;47.83;15.70;;;8.80;99.90;;;;;;5082886;28;20058;-72
2023/04/16 00:43:36;;;;;;;45.60;17.35;;;8.80;99.90;;;;;;5094915;28;20048;-72
2023/04/16 00:46:04;;;;;;;45.17;17.27;;;8.90;99.90;;;;;;5093380;28;20044;-72
2023/04/16 00:48:31;;;;;;;44.75;16.73;;;8.80;99.90;;;;;;5096216;28;20512;-72
2023/04/16 00:50:59;;;;;;;56.20;17.92;;;8.80;99.90;;;;;;5093859;28;20075;-75
2023/04/16 00:53:25;;;;;;;46.22;16.70;;;8.80;99.90;;;;;;5103108;28;20075;-73
2023/04/16 00:55:51;;;;;;;44.45;16.40;;;8.80;99.90;;;;;;5092506;28;20044;-72
2023/04/16 00:58:17;;;;;;;48.63;17.75;;;8.80;99.90;;;;;;5074858;28;20040;-72
2023/04/16 01:00:43;;;;;;;42.08;16.73;;;8.80;99.90;;;;;;5079078;28;20055;-72
2023/04/16 01:03:09;;;;;;;44.80;18.05;;;8.70;99.90;;;;;;5112915;28;20043;-71
2023/04/16 01:05:35;;;;;;;49.22;17.65;;;8.70;99.90;;;;;;5112959;28;20523;-73
2023/04/16 01:08:01;;;;;;;42.63;17.77;;;8.70;99.90;;;;;;5112376;28;20067;-76
2023/04/16 01:10:27;;;;;;;47.83;16.70;;;8.70;99.90;;;;;;5113954;28;20052;-72
2023/04/16 01:12:53;;;;;;;44.28;18.10;;;8.70;99.90;;;;;;5078991;28;20067;-72
2023/04/16 01:15:19;;;;;;;60.50;19.85;;;8.70;99.90;;;;;;5071295;28;20048;-73
2023/04/16 01:17:47;;;;;;;46.72;16.23;;;8.70;99.90;;;;;;5069930;28;20501;-71
2023/04/16 01:20:13;;;;;;;41.22;17.60;;;8.70;99.90;;;;;;5070681;28;20067;-72
2023/04/16 01:22:39;;;;;;;41.67;17.52;;;8.60;99.90;;;;;;5071068;28;20044;-71
2023/04/16 01:25:05;;;;;;;42.83;16.98;;;8.60;99.90;;;;;;5070817;28;20067;-72
2023/04/16 01:27:31;;;;;;;49.53;18.13;;;8.60;99.90;;;;;;5041148;28;20045;-72
2023/04/16 01:29:57;;;;;;;44.63;17.20;;;8.60;99.90;;;;;;5072637;28;20048;-71
2023/04/16 01:32:23;;;;;;;46.05;17.13;;;8.50;99.90;;;;;;5071074;28;20131;-72
2023/04/16 01:34:48;;;;;;;47.80;18.35;;;8.50;99.90;;;;;;5070729;28;20076;-72
2023/04/16 01:37:14;;;;;;;48.22;18.90;;;8.50;99.90;;;;;;5070619;28;20133;-72
2023/04/16 01:39:40;;;;;;;47.63;16.40;;;8.50;99.90;;;;;;5069975;28;20045;-72
2023/04/16 01:42:05;;;;;;;42.80;17.73;;;8.50;99.90;;;;;;5069020;28;20056;-73
2023/04/16 01:44:31;;;;;;;45.28;16.63;;;8.50;99.90;;;;;;5052524;28;20124;-72
2023/04/16 01:46:57;;;;;;;47.97;17.25;;;8.50;99.90;;;;;;5050641;28;20052;-71
2023/04/16 01:49:23;;;;;;;46.42;17.70;;;8.50;99.90;;;;;;5051411;28;20550;-72
2023/04/16 01:51:48;;;;;;;46.80;18.55;;;8.50;99.90;;;;;;5050955;28;20052;-73
2023/04/16 01:54:14;;;;;;;52.80;17.17;;;8.50;99.90;;;;;;5050465;28;20057;-73
2023/04/16 01:56:40;;;;;;;46.97;17.90;;;8.50;99.90;;;;;;5072225;28;20051;-72
2023/04/16 01:59:05;;;;;;;47.35;17.17;;;8.50;99.90;;;;;;5072274;28;20037;-77
2023/04/16 02:01:31;;;;;;;46.60;18.17;;;8.50;99.90;;;;;;5066352;28;20124;-72
2023/04/16 02:03:57;;;;;;;40.72;17.48;;;8.50;99.90;;;;;;5059901;28;20490;-71
2023/04/16 02:06:23;;;;;;;45.20;17.73;;;8.60;99.90;;;;;;5071510;28;20079;-72
2023/04/16 02:08:48;;;;;;;44.92;17.35;;;8.50;99.90;;;;;;5071146;28;20110;-71
2023/04/16 02:11:14;;;;;;;47.03;17.92;;;8.50;99.90;;;;;;5053075;28;20049;-72
2023/04/16 02:13:40;;;;;;;46.15;17.00;;;8.50;99.90;;;;;;5106885;28;20112;-71
2023/04/16 02:16:06;;;;;;;51.00;18.58;;;8.50;99.90;;;;;;5112442;28;20043;-76
2023/04/16 02:18:31;;;;;;;41.78;18.50;;;8.40;99.90;;;;;;5111017;28;20048;-71
2023/04/16 02:20:59;;;;;;;51.70;19.15;;;8.40;99.90;;;;;;5110971;28;20053;-71
2023/04/16 02:23:24;;;;;;;49.22;17.05;;;8.40;99.90;;;;;;5080123;28;20048;-71
2023/04/16 02:25:50;;;;;;;46.50;17.95;;;8.40;99.90;;;;;;5092006;28;20556;-71
2023/04/16 02:28:16;;;;;;;49.47;18.10;;;8.40;99.90;;;;;;5097302;28;20043;-73
2023/04/16 02:30:42;;;;;;;47.67;17.75;;;8.40;99.90;;;;;;5112078;28;20393;-71
2023/04/16 02:33:10;;;;;;;48.45;18.20;;;8.40;99.90;;;;;;5111357;28;20396;-75
2023/04/16 02:35:37;;;;;;;49.35;18.33;;;8.30;99.90;;;;;;5104734;28;20058;-72
2023/04/16 02:38:03;;;;;;;40.42;17.38;;;8.30;99.90;;;;;;5106609;28;20087;-72
2023/04/16 02:40:29;;;;;;;48.63;18.20;;;8.30;99.90;;;;;;5093275;28;20083;-71
2023/04/16 02:42:55;;;;;;;50.03;18.38;;;8.30;99.90;;;;;;5094124;28;20082;-72
2023/04/16 02:45:21;;;;;;;44.90;17.73;;;8.20;99.90;;;;;;5105777;28;20075;-71
2023/04/16 02:47:48;;;;;;;44.22;20.13;;;8.20;99.90;;;;;;5072857;28;20431;-72
2023/04/16 02:50:14;;;;;;;46.90;17.98;;;8.20;99.90;;;;;;5103807;28;20035;-71
2023/04/16 02:52:40;;;;;;;52.70;19.55;;;8.20;99.90;;;;;;5081256;28;20047;-71
2023/04/16 02:55:06;;;;;;;47.92;17.42;;;8.10;99.90;;;;;;5091101;28;20044;-73
2023/04/16 02:57:32;;;;;;;49.50;17.70;;;8.10;99.90;;;;;;5090673;28;20100;-72
2023/04/16 02:59:58;;;;;;;54.42;19.05;;;8.10;99.90;;;;;;5091410;28;20067;-71
2023/04/16 03:02:23;;;;;;;41.97;17.38;;;8.10;99.90;;;;;;5072226;28;20486;-71
2023/04/16 03:04:49;;;;;;;47.25;16.73;;;8.20;99.90;;;;;;5092322;28;20054;-71
2023/04/16 03:07:17;;;;;;;46.83;18.42;;;8.10;99.90;;;;;;5073639;28;20055;-72
2023/04/16 03:09:44;;;;;;;49.30;18.08;;;8.10;99.90;;;;;;5111324;28;20716;-71
2023/04/16 03:12:10;;;;;;;49.35;19.05;;;8.10;99.90;;;;;;5092027;28;20063;-71
2023/04/16 03:14:35;;;;;;;54.17;19.00;;;8.10;99.90;;;;;;5092917;28;20051;-73
2023/04/16 03:17:01;;;;;;;45.67;19.33;;;8.10;99.90;;;;;;5110526;28;20048;-71
2023/04/16 03:19:27;;;;;;;55.00;19.02;;;8.10;99.90;;;;;;5092407;28;20108;-71
2023/04/16 03:21:52;;;;;;;50.00;18.77;;;8.10;99.90;;;;;;5092759;28;20043;-72
2023/04/16 03:24:18;;;;;;;51.05;17.65;;;8.10;99.90;;;;;;5110244;28;20047;-71
2023/04/16 03:26:44;;;;;;;51.65;18.15;;;8.10;99.90;;;;;;5090227;28;20570;-71
2023/04/16 03:29:09;;;;;;;48.05;17.85;;;8.10;99.90;;;;;;5090899;28;20504;-71
2023/04/16 03:31:35;;;;;;;42.45;17.60;;;8.10;99.90;;;;;;5072069;28;20559;-73
2023/04/16 03:34:01;;;;;;;47.95;17.95;;;8.10;99.90;;;;;;5090134;28;20125;-71
2023/04/16 03:36:27;;;;;;;48.95;18.20;;;8.10;99.90;;;;;;5072337;28;20478;-73
2023/04/16 03:38:52;;;;;;;48.28;18.83;;;8.10;99.90;;;;;;5090013;28;20554;-71
2023/04/16 03:41:18;;;;;;;55.95;18.40;;;8.10;99.90;;;;;;5072240;28;20083;-71
2023/04/16 03:43:44;;;;;;;46.92;18.05;;;8.10;99.90;;;;;;5072582;28;20678;-71
2023/04/16 03:46:10;;;;;;;55.35;19.60;;;8.10;99.90;;;;;;5090805;28;20052;-71
2023/04/16 03:48:36;;;;;;;45.50;18.98;;;8.00;99.90;;;;;;5070567;28;20046;-72
2023/04/16 03:51:02;;;;;;;42.35;17.50;;;8.10;99.90;;;;;;5094389;28;20048;-71
2023/04/16 03:53:28;;;;;;;55.83;19.98;;;8.00;99.90;;;;;;5093508;28;20050;-71
2023/04/16 03:55:54;;;;;;;46.72;17.35;;;8.10;99.90;;;;;;5094577;28;20475;-72
2023/04/16 03:58:20;;;;;;;49.55;18.50;;;8.10;99.90;;;;;;5076405;28;20048;-72
2023/04/16 04:00:46;;;;;;;50.20;18.98;;;8.10;99.90;;;;;;5076898;28;20084;-71
2023/04/16 04:03:12;;;;;;;44.88;18.23;;;8.10;99.90;;;;;;5076123;28;20083;-71
2023/04/16 04:05:41;;;;;;;51.35;20.67;;;8.10;99.90;;;;;;5093584;28;20101;-71
2023/04/16 04:08:08;;;;;;;44.80;18.35;;;8.00;99.90;;;;;;5097688;28;20093;-72
2023/04/16 04:10:34;;;;;;;45.30;17.27;;;8.10;99.90;;;;;;5096476;28;20520;-72
2023/04/16 04:13:02;;;;;;;48.50;18.80;;;8.10;99.90;;;;;;5112966;28;20598;-71
2023/04/16 04:15:28;;;;;;;45.08;18.58;;;8.00;99.90;;;;;;5114311;28;20061;-72
2023/04/16 04:17:54;;;;;;;43.72;17.45;;;8.00;99.90;;;;;;5114171;28;20122;-71
2023/04/16 04:20:19;;;;;;;38.80;16.33;;;8.00;99.90;;;;;;5113939;28;20051;-76
2023/04/16 04:22:45;;;;;;;41.03;16.25;;;8.00;99.90;;;;;;5113526;28;20051;-71
2023/04/16 04:25:11;;;;;;;43.13;17.35;;;8.00;99.90;;;;;;5096783;28;20073;-71
2023/04/16 04:27:37;;;;;;;44.45;17.77;;;8.00;99.90;;;;;;5113925;28;20048;-71
2023/04/16 04:30:03;;;;;;;46.67;17.85;;;8.00;99.90;;;;;;5110622;28;20079;-71
2023/04/16 04:32:30;;;;;;;45.08;17.23;;;8.00;99.90;;;;;;5113572;28;20051;-71
2023/04/16 04:34:55;;;;;;;42.55;17.42;;;7.90;99.90;;;;;;5091705;28;20055;-71
2023/04/16 04:37:21;;;;;;;42.60;17.45;;;8.00;99.90;;;;;;5112784;28;20134;-75
2023/04/16 04:39:47;;;;;;;40.58;16.45;;;8.00;99.90;;;;;;5113582;28;20165;-71
2023/04/16 04:42:12;;;;;;;43.42;17.55;;;8.00;99.90;;;;;;5114597;28;20044;-71
2023/04/16 04:44:38;;;;;;;42.17;16.00;;;8.00;99.90;;;;;;5078940;28;20752;-71
2023/04/16 04:47:04;;;;;;;41.55;17.85;;;7.90;99.90;;;;;;5112232;28;20140;-71
2023/04/16 04:49:30;;;;;;;50.72;18.08;;;8.00;99.90;;;;;;5093832;28;20047;-74
2023/04/16 04:51:55;;;;;;;44.33;16.77;;;8.00;99.90;;;;;;5093820;28;20392;-75
2023/04/16 04:54:21;;;;;;;42.92;17.58;;;8.00;99.90;;;;;;5077742;28;20138;-75
2023/04/16 04:56:47;;;;;;;45.50;17.45;;;8.00;99.90;;;;;;5058334;28;20055;-72
2023/04/16 04:59:12;;;;;;;44.55;15.65;;;8.00;99.90;;;;;;5093131;28;20416;-71
2023/04/16 05:01:38;;;;;;;41.10;17.05;;;8.00;99.90;;;;;;5105730;28;20051;-71
2023/04/16 05:04:04;;;;;;;40.22;17.23;;;7.90;99.90;;;;;;5113183;28;20396;-71
2023/04/16 05:06:30;;;;;;;42.53;16.20;;;8.10;99.90;;;;;;5112999;28;20055;-71
2023/04/16 05:08:56;;;;;;;;;;;8.00;99.90;;;;;;5079006;28;20056;-71
2023/04/16 05:11:21;;;;;;;39.97;16.95;;;8.00;99.90;;;;;;5075012;28;20327;-76
2023/04/16 05:13:47;;;;;;;41.60;16.45;;;8.10;99.90;;;;;;5093697;28;20095;-71
2023/04/16 05:16:13;;;;;;;41.00;16.98;;;8.10;99.90;;;;;;5095548;28;20430;-71
2023/04/16 05:18:38;;;;;;;40.95;16.83;;;8.10;99.90;;;;;;5112327;28;20044;-71
2023/04/16 05:21:04;;;;;;;46.92;18.45;;;8.10;99.90;;;;;;5103695;28;20044;-71
2023/04/16 05:23:30;;;;;;;39.28;15.98;;;8.10;99.90;;;;;;5101814;28;20044;-71
2023/04/16 05:25:56;;;;;;;40.65;16.23;;;8.10;99.90;;;;;;5113543;28;20079;-73
2023/04/16 05:28:21;;;;;;;40.30;16.88;;;8.10;99.90;;;;;;5113436;28;20086;-71
2023/04/16 05:30:47;;;;;;;42.78;16.77;;;8.10;99.90;;;;;;5113075;28;20093;-71
2023/04/16 05:33:13;;;;;;;38.95;15.52;;;8.20;99.90;;;;;;5077524;28;20059;-72
2023/04/16 05:35:38;;;;;;;39.60;16.67;;;8.20;99.90;;;;;;5091738;28;20104;-71
2023/04/16 05:38:04;;;;;;;39.38;16.92;;;8.20;99.90;;;;;;5070860;28;20119;-71
2023/04/16 05:40:30;;;;;;;40.20;16.40;;;8.20;99.90;;;;;;5104452;28;20055;-71
2023/04/16 05:42:56;;;;;;;49.63;17.60;;;8.20;99.90;;;;;;5112823;28;20468;-71
2023/04/16 05:45:22;;;;;;;41.13;16.45;;;8.20;99.90;;;;;;5112489;28;20090;-71
2023/04/16 05:47:47;;;;;;;48.50;17.17;;;8.20;99.90;;;;;;5111687;28;20048;-71
2023/04/16 05:50:13;;;;;;;39.00;16.27;;;8.20;99.90;;;;;;5094275;28;20047;-72
2023/04/16 05:52:39;;;;;;;45.72;18.33;;;8.20;99.90;;;;;;5092572;28;20130;-71
2023/04/16 05:55:08;;;;;;;45.45;18.25;;;8.30;99.90;;;;;;5094381;28;20056;-71
2023/04/16 05:57:34;;;;;;;40.03;15.80;;;8.20;99.90;;;;;;5096067;28;20044;-73
2023/04/16 05:59:59;;;;;;;41.85;17.25;;;8.30;99.90;;;;;;5091494;28;20064;-71
2023/04/16 06:02:25;;;;;;;43.30;16.50;;;8.30;99.90;;;;;;5090613;28;20048;-76
2023/04/16 06:04:51;;;;;;;42.72;15.82;;;8.30;99.90;;;;;;5091747;28;20062;-71
2023/04/16 06:07:16;;;;;;;51.60;18.50;;;8.30;99.90;;;;;;5096498;28;20051;-71
2023/04/16 06:09:43;;;;;;;39.40;16.42;;;8.30;99.90;;;;;;5082458;28;20051;-71
2023/04/16 06:12:09;;;;;;;41.00;16.25;;;8.30;99.90;;;;;;5107029;28;20055;-71
2023/04/16 06:14:35;;;;;;;40.40;15.80;;;8.30;99.90;;;;;;5090237;28;20056;-71
2023/04/16 06:17:00;;;;;;;39.05;16.10;;;8.30;99.90;;;;;;5089830;28;20097;-71
2023/04/16 06:19:26;;;;;;;46.28;16.58;;;8.20;99.90;;;;;;5106220;28;20035;-73
2023/04/16 06:21:52;;;;;;;46.70;17.15;;;8.20;99.90;;;;;;5104023;28;20120;-73
2023/04/16 06:24:18;;;;;;;41.28;16.30;;;8.00;99.90;;;;;;5090044;28;20050;-71
2023/04/16 06:26:44;;;;;;;45.63;18.67;;;8.20;99.90;;;;;;5093559;28;20044;-71
2023/04/16 06:29:10;;;;;;;50.38;16.60;;;8.20;99.90;;;;;;5112197;28;20047;-71
2023/04/16 06:31:36;;;;;;;;;;;8.20;99.90;;;;;;5093928;28;20047;-72
2023/04/16 06:34:01;;;;;;;45.97;16.02;;;8.20;99.90;;;;;;5086064;28;20304;-71
2023/04/16 06:36:27;;;;;;;42.42;16.00;;;8.20;99.90;;;;;;5091636;28;20486;-71
2023/04/16 06:38:53;;;;;;;41.00;16.48;;;8.30;99.90;;;;;;5081085;28;20051;-71
2023/04/16 06:41:21;;;;;;;47.40;15.95;;;8.30;99.90;;;;;;5064622;28;20078;-72
2023/04/16 06:43:47;;;;;;;41.65;17.05;;;8.40;99.90;;;;;;5110250;28;20055;-73
2023/04/16 06:46:12;;;;;;;46.22;16.17;;;8.40;99.90;;;;;;5111479;28;20043;-71
2023/04/16 06:48:38;;;;;;;38.08;16.70;;;8.40;99.90;;;;;;5092064;28;20101;-71
2023/04/16 06:51:04;;;;;;;39.53;15.50;;;8.50;99.90;;;;;;5111870;28;20051;-71
2023/04/16 06:53:30;;;;;;;39.10;14.13;;;8.70;99.90;;;;;;5074583;28;20056;-72
2023/04/16 06:55:56;;;;;;;39.95;15.88;;;8.70;99.90;;;;;;5073031;28;20143;-72
2023/04/16 06:58:21;;;;;;;42.20;16.42;;;8.80;99.90;;;;;;5078614;28;20548;-71
2023/04/16 07:00:47;;;;;;;36.22;14.82;;;8.80;99.90;;;;;;5090863;28;20070;-71
2023/04/16 07:03:13;;;;;;;37.40;14.93;;;8.90;99.90;;;;;;5089343;28;20051;-73
2023/04/16 07:05:39;;;;;;;34.30;14.32;;;9.00;99.90;;;;;;5081293;28;20485;-71
2023/04/16 07:08:04;;;;;;;43.10;16.38;;;9.10;99.90;;;;;;5090264;28;20040;-71
2023/04/16 07:10:30;;;;;;;41.33;16.15;;;9.10;99.90;;;;;;5073434;28;20127;-71
2023/04/16 07:12:56;;;;;;;37.80;16.65;;;9.20;99.90;;;;;;5090250;28;20056;-71
2023/04/16 07:15:22;;;;;;;43.70;15.48;;;9.20;99.90;;;;;;5084395;28;20126;-71
2023/04/16 07:17:47;;;;;;;31.58;13.18;;;9.20;99.90;;;;;;5105576;28;20492;-70
2023/04/16 07:20:13;;;;;;;39.85;14.90;;;9.30;99.90;;;;;;5107739;28;20549;-69
2023/04/16 07:22:39;;;;;;;36.65;14.27;;;9.30;99.90;;;;;;5109372;28;20046;-69
2023/04/16 07:25:05;;;;;;;37.63;15.32;;;9.40;99.90;;;;;;5093647;28;20488;-70
2023/04/16 07:27:30;;;;;;;38.70;14.93;;;9.40;99.90;;;;;;5093079;28;20052;-69
2023/04/16 07:29:56;;;;;;;36.00;15.18;;;9.40;99.90;;;;;;5110999;28;20058;-69
2023/04/16 07:32:22;;;;;;;41.25;15.50;;;9.40;99.90;;;;;;5092494;28;20662;-69
2023/04/16 07:34:48;;;;;;;33.88;15.13;;;9.40;99.90;;;;;;5110486;28;20044;-70
2023/04/16 07:37:13;;;;;;;31.65;14.07;;;9.30;99.90;;;;;;5075433;28;20382;-70
2023/04/16 07:39:39;;;;;;;35.35;14.07;;;9.30;99.90;;;;;;5110626;28;20130;-71
2023/04/16 07:42:05;;;;;;;35.67;14.30;;;9.30;99.90;;;;;;5111176;28;20073;-70
2023/04/16 07:44:31;;;;;;;36.35;13.93;;;9.30;99.90;;;;;;5111167;28;20501;-70
2023/04/16 07:46:56;;;;;;;38.20;15.57;;;9.30;99.90;;;;;;5109898;28;20275;-69
2023/04/16 07:49:22;;;;;;;36.05;13.73;;;9.30;99.90;;;;;;5110434;28;20047;-69
2023/04/16 07:51:48;;;;;;;36.65;14.68;;;9.30;99.90;;;;;;5103751;28;20044;-69
2023/04/16 07:54:14;;;;;;;37.78;14.50;;;9.30;99.90;;;;;;5110213;28;20131;-69
2023/04/16 07:56:39;;;;;;;37.15;14.57;;;9.40;99.90;;;;;;5081506;28;20284;-69
2023/04/16 07:59:05;;;;;;;34.85;13.60;;;9.40;99.90;;;;;;5101273;28;20207;-69
2023/04/16 08:01:31;;;;;;;38.38;14.93;;;9.50;99.90;;;;;;5077368;28;20048;-70
2023/04/16 08:03:57;;;;;;;32.70;14.82;;;9.60;99.90;;;;;;5103064;28;20040;-70
2023/04/16 08:06:23;;;;;;;39.78;16.25;;;9.70;99.90;;;;;;5109410;28;20047;-65
2023/04/16 08:08:49;;;;;;;37.80;15.15;;;9.90;99.90;;;;;;5104145;28;20043;-64
2023/04/16 08:11:15;;;;;;;35.05;14.98;;;10.00;99.90;;;;;;5110890;28;20040;-64
2023/04/16 08:13:41;;;;;;;36.45;14.45;;;10.20;99.90;;;;;;5109738;28;20144;-64
2023/04/16 08:16:06;;;;;;;32.00;14.88;;;10.30;99.90;;;;;;5110766;28;20048;-65
2023/04/16 08:18:32;;;;;;;33.78;14.38;;;10.40;99.90;;;;;;5109672;28;20036;-65
2023/04/16 08:20:58;;;;;;;33.65;14.45;;;10.50;99.90;;;;;;5106986;28;20066;-67
2023/04/16 08:23:23;;;;;;;30.48;14.07;;;10.60;99.90;;;;;;5095265;28;20055;-70
2023/04/16 08:25:49;;;;;;;29.63;13.20;;;10.70;99.90;;;;;;5110258;28;20039;-72
2023/04/16 08:28:15;;;;;;;39.70;14.57;;;10.70;99.90;;;;;;5108885;28;20051;-71
2023/04/16 08:30:40;;;;;;;37.08;13.82;;;10.80;99.90;;;;;;5068928;28;20039;-74
2023/04/16 08:33:06;;;;;;;27.80;13.80;;;10.80;99.90;;;;;;5094095;28;20059;-71
2023/04/16 08:35:32;;;;;;;30.38;13.20;;;10.90;99.90;;;;;;5094786;28;20043;-70
2023/04/16 08:37:58;;;;;;;31.35;14.07;;;11.00;99.90;;;;;;5108251;28;20075;-71
2023/04/16 08:40:25;;;;;;;;;;;11.10;99.90;;;;;;5121956;27;20047;-70
2023/04/16 08:42:54;;;;;;;31.10;13.30;;;11.20;99.90;;;;;;5096299;28;19924;-71
2023/04/16 08:45:20;;;;;;;28.55;13.45;;;11.30;99.90;;;;;;5093451;28;20542;-71
2023/04/16 08:47:50;;;;;;;25.75;12.20;;;11.40;99.90;;;;;;5092488;28;20040;-73
2023/04/16 08:50:21;;;;;;;28.15;12.27;;;11.40;99.90;;;;;;5104085;28;20035;-71
2023/04/16 08:52:52;;;;;;;28.38;12.88;;;11.60;99.90;;;;;;5112120;28;20043;-72
2023/04/16 08:55:38;;;;;;;28.77;13.05;;;11.60;99.90;;;;;;5096740;28;20137;-71
2023/04/16 08:58:17;;;;;;;26.65;12.00;;;11.80;99.90;;;;;;5092204;28;20036;-72
2023/04/16 09:00:44;;;;;;;33.67;11.63;;;11.80;99.90;;;;;;5110581;28;20039;-75
2023/04/16 09:03:11;;;;;;;25.48;13.23;;;11.90;99.90;;;;;;5087950;28;20055;-71
2023/04/16 09:05:38;;;;;;;27.33;11.35;;;12.00;99.90;;;;;;5094272;28;20131;-74
2023/04/16 09:08:07;;;;;;;23.67;10.88;;;12.10;99.90;;;;;;5105791;28;20051;-71
2023/04/16 09:10:33;;;;;;;24.33;10.82;;;12.10;99.90;;;;;;5112909;28;20043;-72
2023/04/16 09:12:58;;;;;;;;;;;12.30;99.90;;;;;;5113499;28;20051;-72
2023/04/16 09:15:25;;;;;;;31.15;11.85;;;12.40;99.90;;;;;;5113116;28;19950;-73
2023/04/16 09:17:51;;;;;;;24.08;10.65;;;12.50;99.90;;;;;;5094380;28;20067;-71
2023/04/16 09:20:18;;;;;;;26.40;10.60;;;12.60;99.90;;;;;;5112882;28;20544;-68
2023/04/16 09:22:45;;;;;;;30.05;11.63;;;12.70;99.90;;;;;;5106139;28;20485;-75
2023/04/16 09:25:11;;;;;;;23.45;10.55;;;12.80;99.90;;;;;;5109318;28;20051;-73
2023/04/16 09:27:37;;;;;;;24.70;10.52;;;12.90;99.90;;;;;;5092449;28;20044;-69
2023/04/16 09:30:21;;;;;;;;;;;13.00;99.90;;;;;;5091940;28;20093;-69
2023/04/16 09:32:47;;;;;;;20.77;9.68;;;13.10;99.90;;;;;;5099296;28;20280;-69
2023/04/16 09:35:14;;;;;;;;;;;13.30;99.90;;;;;;5112167;28;20699;-69
2023/04/16 09:37:39;;;;;;;24.40;10.25;;;13.40;99.90;;;;;;5111097;28;19931;-68
2023/04/16 09:40:05;;;;;;;;;;;13.50;99.90;;;;;;5112410;28;20791;-70
2023/04/16 09:42:34;;;;;;;18.30;8.82;;;13.50;99.90;;;;;;5103755;28;20376;-69
2023/04/16 09:44:59;;;;;;;19.05;8.75;;;13.60;99.90;;;;;;5099740;28;20492;-70
2023/04/16 09:47:37;;;;;;;17.38;9.50;;;13.60;99.90;;;;;;5094960;28;20050;-69
2023/04/16 09:50:03;;;;;;;19.15;9.32;;;13.60;99.90;;;;;;5095655;28;20055;-69
2023/04/16 09:52:29;;;;;;;19.05;9.00;;;13.60;99.90;;;;;;5097932;28;20044;-70
2023/04/16 09:54:55;;;;;;;18.58;8.95;;;13.70;99.90;;;;;;5084787;28;20044;-68
2023/04/16 09:57:21;;;;;;;;;;;13.80;99.90;;;;;;5098160;28;20044;-70
2023/04/16 09:59:51;;;;;;;35.83;10.03;;;13.90;99.90;;;;;;5103440;28;19974;-76
2023/04/16 10:02:17;;;;;;;20.60;9.75;;;14.00;99.90;;;;;;5103128;28;20055;-69
2023/04/16 10:04:51;;;;;;;17.92;8.68;;;14.10;99.90;;;;;;5092211;28;20036;-69
2023/04/16 10:07:18;;;;;;;22.10;11.07;;;14.10;99.90;;;;;;5102099;28;20136;-69
2023/04/16 10:09:44;;;;;;;18.10;8.68;;;14.20;99.90;;;;;;5094781;28;20069;-70
2023/04/16 10:12:14;;;;;;;19.00;9.57;;;14.20;99.90;;;;;;5099041;28;20113;-74
2023/04/16 10:14:40;;;;;;;18.35;9.25;;;14.30;99.90;;;;;;5108375;28;20397;-71
2023/04/16 10:17:09;;;;;;;19.92;9.30;;;14.30;99.90;;;;;;5089043;28;20047;-70
2023/04/16 10:19:35;;;;;;;21.00;9.27;;;14.40;99.90;;;;;;5094686;28;20051;-69
2023/04/16 10:22:02;;;;;;;16.70;9.23;;;14.50;99.90;;;;;;5099492;28;20048;-74
2023/04/16 10:24:29;;;;;;;19.77;8.82;;;14.60;99.90;;;;;;5102204;28;20116;-69
2023/04/16 10:26:55;;;;;;;17.83;9.20;;;14.80;99.90;;;;;;5107129;28;20051;-71
2023/04/16 10:29:21;;;;;;;;;;;14.90;99.90;;;;;;5073926;28;20109;-70
2023/04/16 10:31:48;;;;;;;16.58;8.15;;;14.90;99.90;;;;;;5090109;28;19989;-71
2023/04/16 10:34:14;;;;;;;18.90;10.05;;;15.00;99.90;;;;;;5089970;28;20047;-69
2023/04/16 10:36:40;;;;;;;17.75;8.20;;;15.00;99.90;;;;;;5090939;28;20051;-68
2023/04/16 10:39:13;;;;;;;;;;;15.00;99.90;;;;;;5110444;28;20613;-68
2023/04/16 10:41:39;;;;;;;20.35;9.10;;;15.00;99.90;;;;;;5105901;28;19970;-69
2023/04/16 10:44:10;;;;;;;19.98;9.18;;;15.10;99.90;;;;;;5101375;28;20051;-70
2023/04/16 10:46:41;;;;;;;21.40;9.95;;;15.30;99.90;;;;;;5098845;28;20039;-72
2023/04/16 10:49:23;;;;;;;20.88;9.45;;;15.40;99.90;;;;;;5092911;28;20044;-68
2023/04/16 10:52:00;;;;;;;23.33;9.68;;;15.50;99.90;;;;;;5104197;28;20067;-68
2023/04/16 10:54:30;;;;;;;18.63;9.15;;;15.70;99.90;;;;;;5096294;28;20503;-70
2023/04/16 10:56:58;;;;;;;13.63;6.72;;;15.80;99.90;;;;;;5090624;28;20125;-68
2023/04/16 10:59:28;;;;;;;18.65;9.10;;;15.90;99.90;;;;;;5090797;28;20048;-72
2023/04/16 11:01:57;;;;;;;20.60;8.95;;;16.10;99.90;;;;;;5089601;28;20047;-79
2023/04/16 11:04:22;;;;;;;20.50;8.90;;;16.20;99.90;;;;;;5106314;28;20047;-71
2023/04/16 11:07:12;;;;;;;;;;;16.30;99.90;;;;;;5107753;28;20066;-69
2023/04/16 11:09:41;;;;;;;20.02;8.43;;;16.40;99.90;;;;;;5086117;28;19923;-71
2023/04/16 11:12:11;;;;;;;16.77;8.32;;;16.50;99.90;;;;;;5103740;28;20130;-70
2023/04/16 11:14:36;;;;;;;18.98;9.13;;;16.60;99.90;;;;;;5075534;28;20044;-73
2023/04/16 11:17:02;;;;;;;;;;;16.70;99.90;;;;;;5106344;28;20055;-72
2023/04/16 11:19:28;;;;;;;14.35;8.85;;;16.70;99.90;;;;;;5096485;28;19926;-70
2023/04/16 11:21:54;;;;;;;19.83;9.40;;;16.70;99.90;;;;;;5110980;28;20040;-78
2023/04/16 11:24:20;;;;;;;19.48;9.27;;;16.80;99.90;;;;;;5110020;28;20131;-71
2023/04/16 11:26:49;;;;;;;;;;;16.80;99.90;;;;;;5111700;28;20080;-71
2023/04/16 11:29:15;;;;;;;15.02;8.43;;;16.90;99.90;;;;;;5106060;28;20410;-72
2023/04/16 11:31:41;;;;;;;;;;;17.00;99.90;;;;;;5091165;28;20040;-72
2023/04/16 11:34:07;;;;;;;19.80;8.93;;;17.10;99.90;;;;;;5107896;28;20389;-68
2023/04/16 11:36:46;;;;;;;;;;;17.30;99.90;;;;;;5081779;28;20536;-71
2023/04/16 11:39:12;;;;;;;17.58;8.93;;;17.20;99.90;;;;;;5089110;28;19965;-73
2023/04/16 11:41:43;;;;;;;;;;;17.30;99.90;;;;;;5110689;28;20131;-73
2023/04/16 11:44:25;;;;;;;19.00;8.48;;;17.40;99.90;;;;;;5085789;28;19920;-69
2023/04/16 11:46:52;;;;;;;14.50;8.10;;;17.50;99.90;;;;;;5104890;28;20484;-72
2023/04/16 11:49:28;;;;;;;17.85;8.73;;;17.60;99.90;;;;;;5089600;28;20082;-73
2023/04/16 11:51:54;;;;;;;16.92;8.90;;;17.70;99.90;;;;;;5091824;28;20055;-74
2023/04/16 11:54:21;;;;;;;19.35;9.00;;;18.00;99.90;;;;;;5105647;28;20067;-71
2023/04/16 11:56:51;;;;;;;16.80;7.82;;;18.00;99.90;;;;;;5093075;28;20040;-72
2023/04/16 11:59:18;;;;;;;15.57;7.50;;;18.00;99.90;;;;;;5091831;28;20052;-73
2023/04/16 12:01:47;;;;;;;17.42;8.20;;;17.90;99.90;;;;;;5072549;28;20056;-71
2023/04/16 12:04:15;;;;;;;18.13;8.38;;;18.00;99.90;;;;;;5089512;28;20040;-72
2023/04/16 12:06:59;;;;;;;19.33;7.68;;;17.60;99.90;;;;;;5089685;28;20052;-72
2023/04/16 12:09:28;;;;;;;16.10;7.72;;;17.50;99.90;;;;;;5090100;28;20485;-72
2023/04/16 12:11:54;;;;;;;17.65;7.68;;;17.80;99.90;;;;;;5095446;28;20595;-71
2023/04/16 12:14:20;;;;;;;14.70;7.95;;;18.70;99.90;;;;;;5093850;28;20093;-72
2023/04/16 12:16:46;;;;;;;13.32;7.45;;;19.50;99.90;;;;;;5096059;28;20574;-71
2023/04/16 12:19:12;;;;;;;19.95;8.50;;;20.10;99.90;;;;;;5095677;28;20051;-72
2023/04/16 12:21:42;;;;;;;15.13;7.70;;;20.60;99.90;;;;;;5105741;28;20036;-72
2023/04/16 12:24:13;;;;;;;14.93;8.55;;;21.50;99.90;;;;;;5074996;28;20056;-72
2023/04/16 12:26:47;;;;;;;15.02;6.97;;;22.40;99.90;;;;;;5093416;28;20069;-72
2023/04/16 12:29:21;;;;;;;11.98;6.70;;;23.30;99.90;;;;;;5092216;28;20052;-73
2023/04/16 12:31:48;;;;;;;12.82;7.05;;;23.00;99.90;;;;;;5093968;28;20054;-72
2023/04/16 12:34:14;;;;;;;16.27;7.65;;;22.20;99.90;;;;;;5110316;28;20400;-72
2023/04/16 12:36:41;;;;;;;15.82;6.85;;;21.40;99.90;;;;;;5114204;28;20040;-72
2023/04/16 12:39:07;;;;;;;11.88;6.75;;;20.70;99.90;;;;;;5112276;28;20043;-72